sensor_id;sensor_type;location;lat;lon;timestamp;P1;durP1;ratioP1;P2;durP2;ratioP2
53674;SDS011;39574;50.534;8.500;2024-01-30T00:03:48;26.1;;;15.0;;
53674;SDS011;39574;50.534;8.500;2024-01-30T00:08:48;26.0;;;15.1;;
53674;SDS011;39574;50.534;8.500;2024-01-30T00:13:46;25.7;;;15.2;;
53674;SDS011;39574;50.534;8.500;2024-01-30T00:18:44;26.1;;;15.3;;
53674;SDS011;39574;50.534;8.500;2024-01-30T00:23:43;25.9;;;15.4;;
53674;SDS011;39574;50.534;8.500;2024-01-30T00:28:42;28.3;;;16.2;;
53674;SDS011;39574;50.534;8.500;2024-01-30T00:33:40;26.9;;;15.7;;
53674;SDS011;39574;50.534;8.500;2024-01-30T00:38:39;26.8;;;15.7;;
53674;SDS011;39574;50.534;8.500;2024-01-30T00:43:38;26.9;;;15.6;;
53674;SDS011;39574;50.534;8.500;2024-01-30T00:53:36;25.2;;;15.2;;
53674;SDS011;39574;50.534;8.500;2024-01-30T00:58:34;26.0;;;15.5;;
53674;SDS011;39574;50.534;8.500;2024-01-30T01:03:33;25.2;;;15.3;;
53674;SDS011;39574;50.534;8.500;2024-01-30T01:08:32;25.7;;;15.3;;
53674;SDS011;39574;50.534;8.500;2024-01-30T01:13:30;25.9;;;15.6;;
53674;SDS011;39574;50.534;8.500;2024-01-30T01:18:29;27.7;;;16.3;;
53674;SDS011;39574;50.534;8.500;2024-01-30T01:23:28;26.7;;;16.0;;
53674;SDS011;39574;50.534;8.500;2024-01-30T01:33:26;30.6;;;17.4;;
53674;SDS011;39574;50.534;8.500;2024-01-30T01:38:25;32.3;;;18.2;;
53674;SDS011;39574;50.534;8.500;2024-01-30T01:43:23;34.1;;;19.0;;
53674;SDS011;39574;50.534;8.500;2024-01-30T01:48:22;32.4;;;18.1;;
53674;SDS011;39574;50.534;8.500;2024-01-30T01:53:20;29.1;;;17.1;;
53674;SDS011;39574;50.534;8.500;2024-01-30T01:58:19;27.2;;;15.9;;
53674;SDS011;39574;50.534;8.500;2024-01-30T02:03:18;25.0;;;14.9;;
53674;SDS011;39574;50.534;8.500;2024-01-30T02:08:17;25.6;;;14.8;;
53674;SDS011;39574;50.534;8.500;2024-01-30T02:13:15;26.3;;;14.9;;
53674;SDS011;39574;50.534;8.500;2024-01-30T02:18:14;26.5;;;15.2;;
53674;SDS011;39574;50.534;8.500;2024-01-30T02:23:12;26.2;;;15.0;;
53674;SDS011;39574;50.534;8.500;2024-01-30T02:28:12;25.2;;;14.7;;
53674;SDS011;39574;50.534;8.500;2024-01-30T02:33:10;25.5;;;14.9;;
53674;SDS011;39574;50.534;8.500;2024-01-30T02:38:08;24.0;;;14.7;;
53674;SDS011;39574;50.534;8.500;2024-01-30T02:53:05;25.3;;;15.1;;
53674;SDS011;39574;50.534;8.500;2024-01-30T02:58:04;25.8;;;15.3;;
53674;SDS011;39574;50.534;8.500;2024-01-30T03:03:03;27.6;;;16.5;;
53674;SDS011;39574;50.534;8.500;2024-01-30T03:08:00;28.4;;;17.8;;
53674;SDS011;39574;50.534;8.500;2024-01-30T03:13:00;27.8;;;17.6;;
53674;SDS011;39574;50.534;8.500;2024-01-30T03:17:58;26.7;;;16.8;;
53674;SDS011;39574;50.534;8.500;2024-01-30T03:22:57;27.6;;;16.8;;
53674;SDS011;39574;50.534;8.500;2024-01-30T03:27:56;29.3;;;17.1;;
53674;SDS011;39574;50.534;8.500;2024-01-30T03:32:54;27.5;;;16.6;;
53674;SDS011;39574;50.534;8.500;2024-01-30T03:37:53;28.5;;;16.9;;
53674;SDS011;39574;50.534;8.500;2024-01-30T03:42:52;29.3;;;17.5;;
53674;SDS011;39574;50.534;8.500;2024-01-30T03:52:49;28.2;;;16.8;;
53674;SDS011;39574;50.534;8.500;2024-01-30T03:57:47;26.9;;;15.7;;
53674;SDS011;39574;50.534;8.500;2024-01-30T04:02:46;26.7;;;15.5;;
53674;SDS011;39574;50.534;8.500;2024-01-30T04:07:46;25.7;;;14.8;;
53674;SDS011;39574;50.534;8.500;2024-01-30T04:12:44;26.3;;;15.2;;
53674;SDS011;39574;50.534;8.500;2024-01-30T04:17:43;27.0;;;15.6;;
53674;SDS011;39574;50.534;8.500;2024-01-30T04:22:42;27.0;;;15.7;;
53674;SDS011;39574;50.534;8.500;2024-01-30T04:27:40;27.1;;;15.4;;
53674;SDS011;39574;50.534;8.500;2024-01-30T04:32:39;26.0;;;14.9;;
53674;SDS011;39574;50.534;8.500;2024-01-30T04:37:37;24.9;;;14.8;;
53674;SDS011;39574;50.534;8.500;2024-01-30T04:42:36;25.7;;;14.9;;
53674;SDS011;39574;50.534;8.500;2024-01-30T04:47:34;25.9;;;15.2;;
53674;SDS011;39574;50.534;8.500;2024-01-30T04:52:34;26.0;;;15.2;;
53674;SDS011;39574;50.534;8.500;2024-01-30T05:02:30;27.8;;;16.3;;
53674;SDS011;39574;50.534;8.500;2024-01-30T05:07:29;28.9;;;16.1;;
53674;SDS011;39574;50.534;8.500;2024-01-30T05:12:28;27.6;;;15.6;;
53674;SDS011;39574;50.534;8.500;2024-01-30T05:17:31;27.2;;;15.4;;
53674;SDS011;39574;50.534;8.500;2024-01-30T05:22:26;26.6;;;15.3;;
53674;SDS011;39574;50.534;8.500;2024-01-30T05:27:25;25.9;;;15.4;;
53674;SDS011;39574;50.534;8.500;2024-01-30T05:32:24;26.6;;;15.7;;
53674;SDS011;39574;50.534;8.500;2024-01-30T05:37:27;25.9;;;15.6;;
53674;SDS011;39574;50.534;8.500;2024-01-30T05:42:20;26.2;;;15.9;;
53674;SDS011;39574;50.534;8.500;2024-01-30T05:47:19;26.8;;;16.1;;
53674;SDS011;39574;50.534;8.500;2024-01-30T05:52:18;30.6;;;17.7;;
53674;SDS011;39574;50.534;8.500;2024-01-30T05:57:16;31.1;;;17.0;;
53674;SDS011;39574;50.534;8.500;2024-01-30T06:07:14;31.8;;;17.0;;
53674;SDS011;39574;50.534;8.500;2024-01-30T06:12:13;31.9;;;17.0;;
53674;SDS011;39574;50.534;8.500;2024-01-30T06:17:12;31.0;;;16.6;;
53674;SDS011;39574;50.534;8.500;2024-01-30T06:22:10;30.8;;;16.8;;
53674;SDS011;39574;50.534;8.500;2024-01-30T06:27:08;30.1;;;16.3;;
53674;SDS011;39574;50.534;8.500;2024-01-30T06:32:07;29.8;;;16.5;;
53674;SDS011;39574;50.534;8.500;2024-01-30T06:37:06;35.7;;;19.1;;
53674;SDS011;39574;50.534;8.500;2024-01-30T06:42:04;33.7;;;18.0;;
53674;SDS011;39574;50.534;8.500;2024-01-30T06:47:03;32.5;;;17.6;;
53674;SDS011;39574;50.534;8.500;2024-01-30T06:52:02;31.3;;;17.3;;
53674;SDS011;39574;50.534;8.500;2024-01-30T06:57:01;28.5;;;16.4;;
53674;SDS011;39574;50.534;8.500;2024-01-30T07:02:00;29.8;;;17.1;;
53674;SDS011;39574;50.534;8.500;2024-01-30T07:06:58;29.9;;;16.9;;
53674;SDS011;39574;50.534;8.500;2024-01-30T07:16:56;31.3;;;17.2;;
53674;SDS011;39574;50.534;8.500;2024-01-30T07:26:53;30.8;;;17.7;;
53674;SDS011;39574;50.534;8.500;2024-01-30T07:31:51;29.8;;;17.4;;
53674;SDS011;39574;50.534;8.500;2024-01-30T07:36:50;29.1;;;17.1;;
53674;SDS011;39574;50.534;8.500;2024-01-30T07:46:50;31.3;;;18.3;;
53674;SDS011;39574;50.534;8.500;2024-01-30T07:51:47;32.1;;;18.5;;
53674;SDS011;39574;50.534;8.500;2024-01-30T07:56:45;30.3;;;17.9;;
53674;SDS011;39574;50.534;8.500;2024-01-30T08:01:44;29.0;;;17.7;;
53674;SDS011;39574;50.534;8.500;2024-01-30T08:06:45;28.8;;;17.6;;
53674;SDS011;39574;50.534;8.500;2024-01-30T08:11:41;29.6;;;18.1;;
53674;SDS011;39574;50.534;8.500;2024-01-30T08:16:41;31.3;;;18.8;;
53674;SDS011;39574;50.534;8.500;2024-01-30T08:21:39;33.2;;;19.4;;
53674;SDS011;39574;50.534;8.500;2024-01-30T08:26:37;31.5;;;18.5;;
53674;SDS011;39574;50.534;8.500;2024-01-30T08:36:35;33.9;;;19.0;;
53674;SDS011;39574;50.534;8.500;2024-01-30T08:46:33;33.7;;;19.5;;
53674;SDS011;39574;50.534;8.500;2024-01-30T08:51:31;38.2;;;22.3;;
53674;SDS011;39574;50.534;8.500;2024-01-30T08:56:29;39.3;;;23.4;;
53674;SDS011;39574;50.534;8.500;2024-01-30T09:01:28;36.9;;;22.1;;
53674;SDS011;39574;50.534;8.500;2024-01-30T09:06:27;33.8;;;20.5;;
53674;SDS011;39574;50.534;8.500;2024-01-30T09:16:25;33.9;;;20.6;;
53674;SDS011;39574;50.534;8.500;2024-01-30T09:21:23;35.1;;;21.5;;
53674;SDS011;39574;50.534;8.500;2024-01-30T09:26:22;35.9;;;21.8;;
53674;SDS011;39574;50.534;8.500;2024-01-30T09:31:22;35.0;;;21.8;;
53674;SDS011;39574;50.534;8.500;2024-01-30T09:36:20;37.5;;;23.1;;
53674;SDS011;39574;50.534;8.500;2024-01-30T09:41:19;37.0;;;22.9;;
53674;SDS011;39574;50.534;8.500;2024-01-30T09:46:19;35.7;;;21.8;;
53674;SDS011;39574;50.534;8.500;2024-01-30T09:51:16;33.2;;;19.9;;
53674;SDS011;39574;50.534;8.500;2024-01-30T09:56:15;32.1;;;19.5;;
53674;SDS011;39574;50.534;8.500;2024-01-30T10:01:14;31.3;;;18.7;;
53674;SDS011;39574;50.534;8.500;2024-01-30T10:06:12;29.9;;;18.3;;
53674;SDS011;39574;50.534;8.500;2024-01-30T10:11:11;30.6;;;19.1;;
53674;SDS011;39574;50.534;8.500;2024-01-30T10:16:10;31.2;;;19.0;;
53674;SDS011;39574;50.534;8.500;2024-01-30T10:21:08;31.4;;;19.2;;
53674;SDS011;39574;50.534;8.500;2024-01-30T10:26:08;34.0;;;20.1;;
53674;SDS011;39574;50.534;8.500;2024-01-30T10:31:06;33.9;;;20.0;;
53674;SDS011;39574;50.534;8.500;2024-01-30T10:36:06;33.5;;;20.2;;
53674;SDS011;39574;50.534;8.500;2024-01-30T10:41:04;34.6;;;20.4;;
53674;SDS011;39574;50.534;8.500;2024-01-30T10:46:05;33.9;;;20.5;;
53674;SDS011;39574;50.534;8.500;2024-01-30T10:51:02;32.9;;;20.3;;
53674;SDS011;39574;50.534;8.500;2024-01-30T10:56:00;33.2;;;20.6;;
53674;SDS011;39574;50.534;8.500;2024-01-30T11:00:59;33.9;;;20.9;;
53674;SDS011;39574;50.534;8.500;2024-01-30T11:05:59;33.8;;;21.5;;
53674;SDS011;39574;50.534;8.500;2024-01-30T11:10:58;33.4;;;21.4;;
53674;SDS011;39574;50.534;8.500;2024-01-30T11:15:55;32.6;;;20.9;;
53674;SDS011;39574;50.534;8.500;2024-01-30T11:21:00;32.8;;;21.3;;
53674;SDS011;39574;50.534;8.500;2024-01-30T11:25:53;34.0;;;21.1;;
53674;SDS011;39574;50.534;8.500;2024-01-30T11:31:02;33.1;;;21.0;;
53674;SDS011;39574;50.534;8.500;2024-01-30T11:35:51;33.1;;;21.1;;
53674;SDS011;39574;50.534;8.500;2024-01-30T11:45:53;32.8;;;20.9;;
53674;SDS011;39574;50.534;8.500;2024-01-30T11:50:48;31.8;;;20.8;;
53674;SDS011;39574;50.534;8.500;2024-01-30T11:55:49;30.6;;;20.1;;
53674;SDS011;39574;50.534;8.500;2024-01-30T12:00:52;31.3;;;20.4;;
53674;SDS011;39574;50.534;8.500;2024-01-30T12:05:44;31.9;;;21.0;;
53674;SDS011;39574;50.534;8.500;2024-01-30T12:10:42;31.0;;;20.5;;
53674;SDS011;39574;50.534;8.500;2024-01-30T12:15:41;30.6;;;20.1;;
53674;SDS011;39574;50.534;8.500;2024-01-30T12:20:40;31.5;;;20.5;;
53674;SDS011;39574;50.534;8.500;2024-01-30T12:25:39;30.2;;;19.3;;
53674;SDS011;39574;50.534;8.500;2024-01-30T12:30:38;31.3;;;19.5;;
53674;SDS011;39574;50.534;8.500;2024-01-30T12:35:37;31.2;;;19.3;;
53674;SDS011;39574;50.534;8.500;2024-01-30T12:40:35;31.5;;;19.7;;
53674;SDS011;39574;50.534;8.500;2024-01-30T12:45:35;32.1;;;20.5;;
53674;SDS011;39574;50.534;8.500;2024-01-30T12:50:38;31.2;;;20.4;;
53674;SDS011;39574;50.534;8.500;2024-01-30T12:55:32;31.3;;;20.3;;
53674;SDS011;39574;50.534;8.500;2024-01-30T13:00:32;34.2;;;21.9;;
53674;SDS011;39574;50.534;8.500;2024-01-30T13:05:30;36.6;;;22.6;;
53674;SDS011;39574;50.534;8.500;2024-01-30T13:10:29;37.0;;;22.9;;
53674;SDS011;39574;50.534;8.500;2024-01-30T13:15:28;36.4;;;22.7;;
53674;SDS011;39574;50.534;8.500;2024-01-30T13:20:26;36.4;;;22.4;;
53674;SDS011;39574;50.534;8.500;2024-01-30T13:25:25;35.3;;;22.4;;
53674;SDS011;39574;50.534;8.500;2024-01-30T13:30:24;34.6;;;22.2;;
53674;SDS011;39574;50.534;8.500;2024-01-30T13:35:23;34.5;;;22.1;;
53674;SDS011;39574;50.534;8.500;2024-01-30T13:40:22;36.1;;;22.7;;
53674;SDS011;39574;50.534;8.500;2024-01-30T13:45:21;36.0;;;22.3;;
53674;SDS011;39574;50.534;8.500;2024-01-30T13:50:19;37.9;;;23.2;;
53674;SDS011;39574;50.534;8.500;2024-01-30T13:55:19;37.7;;;23.5;;
53674;SDS011;39574;50.534;8.500;2024-01-30T14:00:17;34.8;;;22.4;;
53674;SDS011;39574;50.534;8.500;2024-01-30T14:05:16;34.1;;;22.0;;
53674;SDS011;39574;50.534;8.500;2024-01-30T14:10:16;35.0;;;22.1;;
53674;SDS011;39574;50.534;8.500;2024-01-30T14:15:15;36.0;;;22.5;;
53674;SDS011;39574;50.534;8.500;2024-01-30T14:20:13;36.7;;;23.1;;
53674;SDS011;39574;50.534;8.500;2024-01-30T14:25:12;36.6;;;22.8;;
53674;SDS011;39574;50.534;8.500;2024-01-30T14:30:12;36.1;;;22.3;;
53674;SDS011;39574;50.534;8.500;2024-01-30T14:35:10;36.5;;;22.3;;
53674;SDS011;39574;50.534;8.500;2024-01-30T14:40:09;34.6;;;22.1;;
53674;SDS011;39574;50.534;8.500;2024-01-30T14:45:07;36.1;;;22.5;;
53674;SDS011;39574;50.534;8.500;2024-01-30T14:50:07;35.8;;;22.6;;
53674;SDS011;39574;50.534;8.500;2024-01-30T14:55:06;35.4;;;22.2;;
53674;SDS011;39574;50.534;8.500;2024-01-30T15:00:05;34.0;;;21.8;;
53674;SDS011;39574;50.534;8.500;2024-01-30T15:05:03;33.0;;;21.9;;
53674;SDS011;39574;50.534;8.500;2024-01-30T15:10:02;33.6;;;21.7;;
53674;SDS011;39574;50.534;8.500;2024-01-30T15:15:01;35.0;;;22.4;;
53674;SDS011;39574;50.534;8.500;2024-01-30T15:19:59;36.0;;;22.7;;
53674;SDS011;39574;50.534;8.500;2024-01-30T15:24:59;36.1;;;23.3;;
53674;SDS011;39574;50.534;8.500;2024-01-30T15:29:57;36.3;;;23.7;;
53674;SDS011;39574;50.534;8.500;2024-01-30T15:34:56;36.5;;;23.6;;
53674;SDS011;39574;50.534;8.500;2024-01-30T15:39:55;36.2;;;23.9;;
53674;SDS011;39574;50.534;8.500;2024-01-30T15:44:54;34.4;;;22.9;;
53674;SDS011;39574;50.534;8.500;2024-01-30T15:49:53;33.6;;;22.4;;
53674;SDS011;39574;50.534;8.500;2024-01-30T15:54:52;35.0;;;23.4;;
53674;SDS011;39574;50.534;8.500;2024-01-30T15:59:56;37.0;;;24.0;;
53674;SDS011;39574;50.534;8.500;2024-01-30T16:04:50;38.8;;;25.5;;
53674;SDS011;39574;50.534;8.500;2024-01-30T16:09:49;37.9;;;25.4;;
53674;SDS011;39574;50.534;8.500;2024-01-30T16:14:52;37.8;;;25.2;;
53674;SDS011;39574;50.534;8.500;2024-01-30T16:24:46;37.2;;;24.1;;
53674;SDS011;39574;50.534;8.500;2024-01-30T16:29:45;36.1;;;22.9;;
53674;SDS011;39574;50.534;8.500;2024-01-30T16:34:44;33.8;;;21.3;;
53674;SDS011;39574;50.534;8.500;2024-01-30T16:39:42;31.5;;;20.3;;
53674;SDS011;39574;50.534;8.500;2024-01-30T16:44:42;31.7;;;19.8;;
53674;SDS011;39574;50.534;8.500;2024-01-30T16:49:41;33.0;;;20.0;;
53674;SDS011;39574;50.534;8.500;2024-01-30T16:54:39;34.8;;;21.5;;
53674;SDS011;39574;50.534;8.500;2024-01-30T16:59:38;37.6;;;23.8;;
53674;SDS011;39574;50.534;8.500;2024-01-30T17:04:38;45.4;;;28.5;;
53674;SDS011;39574;50.534;8.500;2024-01-30T17:09:36;53.4;;;32.5;;
53674;SDS011;39574;50.534;8.500;2024-01-30T17:14:35;49.4;;;30.3;;
53674;SDS011;39574;50.534;8.500;2024-01-30T17:19:35;45.9;;;28.2;;
53674;SDS011;39574;50.534;8.500;2024-01-30T17:24:33;41.7;;;25.6;;
53674;SDS011;39574;50.534;8.500;2024-01-30T17:29:32;51.3;;;30.7;;
53674;SDS011;39574;50.534;8.500;2024-01-30T17:34:31;56.9;;;33.7;;
53674;SDS011;39574;50.534;8.500;2024-01-30T17:39:29;59.0;;;36.1;;
53674;SDS011;39574;50.534;8.500;2024-01-30T17:44:28;62.0;;;38.2;;
53674;SDS011;39574;50.534;8.500;2024-01-30T17:49:28;59.4;;;37.2;;
53674;SDS011;39574;50.534;8.500;2024-01-30T17:54:27;57.4;;;36.1;;
53674;SDS011;39574;50.534;8.500;2024-01-30T17:59:28;51.6;;;33.0;;
53674;SDS011;39574;50.534;8.500;2024-01-30T18:04:25;46.6;;;29.8;;
53674;SDS011;39574;50.534;8.500;2024-01-30T18:09:24;42.5;;;27.9;;
53674;SDS011;39574;50.534;8.500;2024-01-30T18:14:22;40.1;;;25.4;;
53674;SDS011;39574;50.534;8.500;2024-01-30T18:19:21;37.3;;;23.4;;
53674;SDS011;39574;50.534;8.500;2024-01-30T18:24:20;35.3;;;22.3;;
53674;SDS011;39574;50.534;8.500;2024-01-30T18:29:19;34.4;;;21.6;;
53674;SDS011;39574;50.534;8.500;2024-01-30T18:39:17;34.4;;;22.2;;
53674;SDS011;39574;50.534;8.500;2024-01-30T18:44:16;38.6;;;24.1;;
53674;SDS011;39574;50.534;8.500;2024-01-30T18:49:15;38.4;;;24.2;;
53674;SDS011;39574;50.534;8.500;2024-01-30T18:54:14;37.5;;;23.7;;
53674;SDS011;39574;50.534;8.500;2024-01-30T19:04:11;35.8;;;22.5;;
53674;SDS011;39574;50.534;8.500;2024-01-30T19:09:10;35.2;;;21.9;;
53674;SDS011;39574;50.534;8.500;2024-01-30T19:14:12;33.3;;;20.9;;
53674;SDS011;39574;50.534;8.500;2024-01-30T19:19:08;36.0;;;21.9;;
53674;SDS011;39574;50.534;8.500;2024-01-30T19:24:07;38.0;;;23.5;;
53674;SDS011;39574;50.534;8.500;2024-01-30T19:29:05;40.2;;;24.7;;
53674;SDS011;39574;50.534;8.500;2024-01-30T19:34:04;40.7;;;25.7;;
53674;SDS011;39574;50.534;8.500;2024-01-30T19:39:04;40.5;;;25.9;;
53674;SDS011;39574;50.534;8.500;2024-01-30T19:44:06;41.4;;;26.6;;
53674;SDS011;39574;50.534;8.500;2024-01-30T19:49:07;41.6;;;26.2;;
53674;SDS011;39574;50.534;8.500;2024-01-30T19:54:14;37.9;;;23.9;;
53674;SDS011;39574;50.534;8.500;2024-01-30T19:59:04;35.7;;;22.4;;
53674;SDS011;39574;50.534;8.500;2024-01-30T20:09:01;35.2;;;21.8;;
53674;SDS011;39574;50.534;8.500;2024-01-30T20:18:56;31.9;;;20.1;;
53674;SDS011;39574;50.534;8.500;2024-01-30T20:24:00;33.0;;;20.2;;
53674;SDS011;39574;50.534;8.500;2024-01-30T20:28:54;34.8;;;21.0;;
53674;SDS011;39574;50.534;8.500;2024-01-30T20:33:53;32.7;;;20.5;;
53674;SDS011;39574;50.534;8.500;2024-01-30T20:38:51;32.9;;;20.4;;
53674;SDS011;39574;50.534;8.500;2024-01-30T20:48:49;30.8;;;18.9;;
53674;SDS011;39574;50.534;8.500;2024-01-30T20:53:50;28.7;;;17.6;;
53674;SDS011;39574;50.534;8.500;2024-01-30T20:58:51;28.7;;;17.2;;
53674;SDS011;39574;50.534;8.500;2024-01-30T21:03:46;27.4;;;16.6;;
53674;SDS011;39574;50.534;8.500;2024-01-30T21:08:45;28.4;;;17.9;;
53674;SDS011;39574;50.534;8.500;2024-01-30T21:13:43;27.1;;;16.8;;
53674;SDS011;39574;50.534;8.500;2024-01-30T21:18:43;27.4;;;16.6;;
53674;SDS011;39574;50.534;8.500;2024-01-30T21:23:42;26.9;;;16.3;;
53674;SDS011;39574;50.534;8.500;2024-01-30T21:28:41;26.2;;;15.8;;
53674;SDS011;39574;50.534;8.500;2024-01-30T21:33:42;26.9;;;15.9;;
53674;SDS011;39574;50.534;8.500;2024-01-30T21:38:39;24.2;;;14.2;;
53674;SDS011;39574;50.534;8.500;2024-01-30T21:43:42;23.4;;;13.6;;
53674;SDS011;39574;50.534;8.500;2024-01-30T21:48:37;22.3;;;13.4;;
53674;SDS011;39574;50.534;8.500;2024-01-30T21:53:36;24.3;;;14.3;;
53674;SDS011;39574;50.534;8.500;2024-01-30T21:58:35;24.6;;;14.2;;
53674;SDS011;39574;50.534;8.500;2024-01-30T22:03:34;23.4;;;13.7;;
53674;SDS011;39574;50.534;8.500;2024-01-30T22:08:33;21.7;;;11.9;;
53674;SDS011;39574;50.534;8.500;2024-01-30T22:13:32;21.4;;;11.3;;
53674;SDS011;39574;50.534;8.500;2024-01-30T22:18:31;19.2;;;9.9;;
53674;SDS011;39574;50.534;8.500;2024-01-30T22:23:30;17.3;;;9.3;;
53674;SDS011;39574;50.534;8.500;2024-01-30T22:33:28;16.0;;;8.5;;
53674;SDS011;39574;50.534;8.500;2024-01-30T22:38:27;14.5;;;7.4;;
53674;SDS011;39574;50.534;8.500;2024-01-30T22:43:26;14.3;;;6.9;;
53674;SDS011;39574;50.534;8.500;2024-01-30T22:48:25;12.8;;;6.2;;
53674;SDS011;39574;50.534;8.500;2024-01-30T22:53:24;12.1;;;5.5;;
53674;SDS011;39574;50.534;8.500;2024-01-30T22:58:23;11.4;;;5.1;;
53674;SDS011;39574;50.534;8.500;2024-01-30T23:03:22;10.1;;;4.8;;
53674;SDS011;39574;50.534;8.500;2024-01-30T23:08:21;10.1;;;4.9;;
53674;SDS011;39574;50.534;8.500;2024-01-30T23:13:22;11.1;;;5.2;;
53674;SDS011;39574;50.534;8.500;2024-01-30T23:18:19;11.0;;;5.4;;
53674;SDS011;39574;50.534;8.500;2024-01-30T23:23:18;11.5;;;5.9;;
53674;SDS011;39574;50.534;8.500;2024-01-30T23:28:17;12.5;;;5.7;;
53674;SDS011;39574;50.534;8.500;2024-01-30T23:33:16;11.8;;;5.4;;
53674;SDS011;39574;50.534;8.500;2024-01-30T23:43:14;10.6;;;5.0;;
53674;SDS011;39574;50.534;8.500;2024-01-30T23:53:12;9.6;;;4.5;;
53674;SDS011;39574;50.534;8.500;2024-01-30T23:58:11;8.1;;;4.2;;
